Allentown, New York
Current Conditions -  °F | °C
As of 6:56 PM on Sunday 21 Dec 2014 (Local Time) from KELZ Reporting Station
Overcast Overcast  
Wind Chill: -7°   Ceiling: 600
Heat Index: -4°   Visibility: 10mi
Dew Point: -6°   Wind: 5mph
Humidity: 88%   Direction: 170°S
Pressure: 30.24"   Gusts: NA
Location:  42.08°N, 78.06°W
Report Text: KELZ 212356Z AUTO 17004KT 10SM OVC006 M04/M06 A3024 RMK AO2 SLP271 T10391056 11028 21039 53008
Loading
Personal Weather Stations






























Interactive Weather Map New forecast layout! Learn more

10-Day Weather Forecast

Advertisements
Track Severe Weather on mobile